Time;durP1;ratioP1;P1;durP2;ratioP2;P2;SDS_P1;SDS_P2;PMS_P1;PMS_P2;Temp;Humidity;BMP_temperature;BMP_pressure;BME280_temperature;BME280_humidity;BME280_pressure;Samples;Min_cycle;Max_cycle;Signal;HPM_P1;HPM_P2
2023/12/16 00:02:01;;;;;;;34.67;14.23;;;;;;;;;;6045865;23;20190;-90
2023/12/16 00:05:06;;;;;;;35.50;14.67;;;;;;;;;;6064047;23;20166;-93
2023/12/16 00:08:11;;;;;;;39.10;14.57;;;;;;;;;;6063336;23;20197;-92
2023/12/16 00:11:18;;;;;;;37.17;14.23;;;;;;;;;;6062220;23;20611;-92
2023/12/16 00:14:23;;;;;;;34.63;14.00;;;;;;;;;;6079454;23;20158;-90
2023/12/16 00:17:28;;;;;;;39.53;15.00;;;;;;;;;;6079326;23;20179;-90
2023/12/16 00:20:37;;;;;;;45.07;15.53;;;;;;;;;;6082218;23;20170;-92
2023/12/16 00:23:43;;;;;;;41.97;16.17;;;;;;;;;;6063245;23;20329;-91
2023/12/16 00:26:50;;;;;;;46.93;16.73;;;;;;;;;;6078517;23;20167;-91
2023/12/16 00:29:55;;;;;;;46.20;16.57;;;;;;;;;;6079207;23;20322;-91
2023/12/16 00:33:00;;;;;;;40.63;15.87;;;;;;;;;;6079753;23;20170;-90
2023/12/16 00:36:05;;;;;;;43.27;16.23;;;;;;;;;;6079736;23;20174;-91
2023/12/16 00:39:10;;;;;;;41.27;16.40;;;;;;;;;;6063390;23;20211;-91
2023/12/16 00:42:16;;;;;;;42.33;16.43;;;;;;;;;;6063418;23;20311;-92
2023/12/16 00:45:22;;;;;;;39.90;15.87;;;;;;;;;;6062601;23;20167;-90
2023/12/16 00:48:27;;;;;;;34.10;14.60;;;;;;;;;;6062081;23;20185;-92
2023/12/16 00:51:33;;;;;;;38.47;15.33;;;;;;;;;;6064911;23;20151;-91
2023/12/16 00:54:38;;;;;;;39.00;14.70;;;;;;;;;;6081986;23;20187;-91
2023/12/16 00:57:44;;;;;;;39.43;14.97;;;;;;;;;;6063132;23;20171;-92
2023/12/16 01:00:49;;;;;;;41.07;16.30;;;;;;;;;;6067839;23;20228;-92
2023/12/16 01:03:54;;;;;;;37.77;15.27;;;;;;;;;;6089892;23;20170;-91
2023/12/16 01:06:59;;;;;;;40.43;16.23;;;;;;;;;;6089435;23;20172;-91
2023/12/16 01:10:05;;;;;;;40.17;15.87;;;;;;;;;;6091632;23;20157;-93
2023/12/16 01:13:11;;;;;;;40.27;15.40;;;;;;;;;;6089952;23;20173;-91
2023/12/16 01:16:17;;;;;;;36.63;15.00;;;;;;;;;;6108458;23;20173;-93
2023/12/16 01:19:22;;;;;;;36.03;14.20;;;;;;;;;;6105572;23;20174;-92
2023/12/16 01:22:26;;;;;;;42.67;15.90;;;;;;;;;;6104680;23;20174;-90
2023/12/16 01:25:31;;;;;;;34.17;14.10;;;;;;;;;;6088887;23;20158;-91
2023/12/16 01:28:38;;;;;;;35.63;14.50;;;;;;;;;;6089026;23;20185;-88
2023/12/16 01:31:42;;;;;;;35.03;14.47;;;;;;;;;;6089375;23;20169;-92
2023/12/16 01:34:47;;;;;;;32.10;13.30;;;;;;;;;;6090021;23;20169;-90
2023/12/16 01:37:53;;;;;;;35.37;14.07;;;;;;;;;;6091356;23;20157;-89
2023/12/16 01:40:58;;;;;;;34.47;13.70;;;;;;;;;;6091765;23;20503;-91
2023/12/16 01:44:05;;;;;;;35.57;14.03;;;;;;;;;;6088795;23;20174;-90
2023/12/16 01:47:10;;;;;;;43.07;16.40;;;;;;;;;;6090914;23;20160;-91
2023/12/16 01:50:16;;;;;;;38.37;14.73;;;;;;;;;;6090180;23;20166;-91
2023/12/16 01:53:21;;;;;;;40.30;15.07;;;;;;;;;;6073444;23;20173;-91
2023/12/16 01:56:28;;;;;;;34.93;13.10;;;;;;;;;;6090134;23;20182;-90
2023/12/16 01:59:34;;;;;;;34.47;13.73;;;;;;;;;;6091411;23;20177;-91
2023/12/16 02:02:40;;;;;;;35.80;13.47;;;;;;;;;;6091851;23;20196;-91
2023/12/16 02:05:45;;;;;;;34.87;13.97;;;;;;;;;;6093809;23;20161;-91
2023/12/16 02:08:50;;;;;;;34.27;13.87;;;;;;;;;;6092520;23;20214;-90
2023/12/16 02:11:55;;;;;;;34.13;14.13;;;;;;;;;;6091781;23;20173;-90
2023/12/16 02:15:02;;;;;;;43.30;14.73;;;;;;;;;;6093066;23;20153;-90
2023/12/16 02:18:08;;;;;;;39.63;14.27;;;;;;;;;;6107720;23;20253;-91
2023/12/16 02:21:13;;;;;;;38.87;14.47;;;;;;;;;;6091310;23;20198;-91
2023/12/16 02:24:19;;;;;;;35.37;13.83;;;;;;;;;;6093195;23;20166;-91
2023/12/16 02:27:25;;;;;;;39.10;14.20;;;;;;;;;;6109260;23;20209;-91
2023/12/16 02:30:31;;;;;;;34.73;14.17;;;;;;;;;;6112394;23;20175;-90
2023/12/16 02:33:38;;;;;;;40.47;14.10;;;;;;;;;;6093938;23;20202;-91
2023/12/16 02:36:43;;;;;;;44.07;14.27;;;;;;;;;;6096626;23;20158;-91
2023/12/16 02:39:50;;;;;;;42.40;15.37;;;;;;;;;;6109300;23;20205;-91
2023/12/16 02:42:55;;;;;;;43.10;15.63;;;;;;;;;;6110568;23;20177;-90
2023/12/16 02:46:02;;;;;;;46.20;15.73;;;;;;;;;;6095552;23;20202;-90
2023/12/16 02:49:06;;;;;;;48.30;16.70;;;;;;;;;;6111645;23;20242;-91
2023/12/16 02:52:11;;;;;;;43.27;15.70;;;;;;;;;;6095797;23;20161;-90
2023/12/16 02:55:18;;;;;;;43.57;15.77;;;;;;;;;;6112326;23;20181;-90
2023/12/16 02:58:23;;;;;;;46.93;16.37;;;;;;;;;;6109924;23;20691;-90
2023/12/16 03:01:28;;;;;;;44.73;16.67;;;;;;;;;;6094205;23;20268;-88
2023/12/16 03:04:33;;;;;;;43.43;15.07;;;;;;;;;;6094173;23;20173;-90
2023/12/16 03:07:39;;;;;;;45.97;15.93;;;;;;;;;;6094786;23;20178;-89
2023/12/16 03:10:45;;;;;;;44.70;16.57;;;;;;;;;;6097201;23;20161;-90
2023/12/16 03:13:51;;;;;;;41.17;15.30;;;;;;;;;;6092387;23;20182;-90
2023/12/16 03:16:57;;;;;;;46.13;15.83;;;;;;;;;;6107628;23;20181;-90
2023/12/16 03:20:03;;;;;;;43.70;16.20;;;;;;;;;;6092263;23;20301;-93
2023/12/16 03:23:08;;;;;;;48.37;17.67;;;;;;;;;;6094286;23;20158;-90
2023/12/16 03:26:15;;;;;;;53.33;17.43;;;;;;;;;;6096529;23;20238;-91
2023/12/16 03:29:20;;;;;;;51.87;17.63;;;;;;;;;;6110269;23;20665;-91
2023/12/16 03:32:26;;;;;;;47.47;16.00;;;;;;;;;;6092960;23;20177;-90
2023/12/16 03:35:31;;;;;;;50.83;16.57;;;;;;;;;;6108685;23;20170;-89
2023/12/16 03:38:36;;;;;;;49.67;16.40;;;;;;;;;;6090923;23;20166;-90
2023/12/16 03:41:42;;;;;;;43.33;16.03;;;;;;;;;;6092149;23;20235;-90
2023/12/16 03:44:47;;;;;;;44.90;16.20;;;;;;;;;;6094397;23;20177;-90
2023/12/16 03:47:52;;;;;;;45.77;16.30;;;;;;;;;;6094177;23;20273;-91
2023/12/16 03:50:58;;;;;;;53.70;17.37;;;;;;;;;;6094031;23;20170;-89
2023/12/16 03:54:03;;;;;;;44.23;17.33;;;;;;;;;;6109057;23;20158;-91
2023/12/16 03:57:10;;;;;;;48.57;17.07;;;;;;;;;;6109620;23;20162;-91
2023/12/16 04:00:15;;;;;;;47.40;16.53;;;;;;;;;;6092476;23;20174;-90
2023/12/16 04:03:20;;;;;;;45.10;16.70;;;;;;;;;;6092293;23;20622;-92
2023/12/16 04:06:25;;;;;;;46.53;15.77;;;;;;;;;;6093250;23;20296;-90
2023/12/16 04:09:30;;;;;;;44.73;16.27;;;;;;;;;;6096647;23;20197;-91
2023/12/16 04:12:37;;;;;;;49.20;16.77;;;;;;;;;;6091095;23;20225;-91
2023/12/16 04:15:42;;;;;;;53.60;17.43;;;;;;;;;;6092761;23;20162;-89
2023/12/16 04:18:47;;;;;;;44.03;15.50;;;;;;;;;;6091541;23;20176;-90
2023/12/16 04:21:52;;;;;;;44.67;17.23;;;;;;;;;;6090694;23;20158;-90
2023/12/16 04:24:58;;;;;;;45.20;16.10;;;;;;;;;;6093557;23;20150;-89
2023/12/16 04:28:04;;;;;;;46.47;15.53;;;;;;;;;;6091893;23;20198;-91
2023/12/16 04:31:14;;;;;;;43.87;16.33;;;;;;;;;;6091115;23;20215;-91
2023/12/16 04:34:19;;;;;;;46.00;15.90;;;;;;;;;;6092861;23;20223;-89
2023/12/16 04:37:24;;;;;;;49.63;16.77;;;;;;;;;;6091586;23;20286;-89
2023/12/16 04:40:30;;;;;;;49.70;17.30;;;;;;;;;;6091928;23;20169;-86
2023/12/16 04:43:37;;;;;;;48.10;16.70;;;;;;;;;;6093121;23;20170;-90
2023/12/16 04:46:42;;;;;;;52.37;16.83;;;;;;;;;;6093329;23;20185;-90
2023/12/16 04:49:47;;;;;;;52.63;17.40;;;;;;;;;;6092185;23;20201;-90
2023/12/16 04:52:52;;;;;;;50.23;16.57;;;;;;;;;;6091691;23;20169;-92
2023/12/16 04:55:57;;;;;;;49.87;17.70;;;;;;;;;;6091443;23;20182;-88
2023/12/16 04:59:04;;;;;;;50.53;18.47;;;;;;;;;;6092884;23;20239;-90
2023/12/16 05:02:09;;;;;;;54.70;17.60;;;;;;;;;;6091344;23;20310;-90
2023/12/16 05:05:14;;;;;;;55.60;17.10;;;;;;;;;;6093271;23;20169;-90
2023/12/16 05:08:20;;;;;;;51.47;17.50;;;;;;;;;;6106868;23;20701;-91
2023/12/16 05:11:25;;;;;;;51.13;17.07;;;;;;;;;;6091347;23;20204;-89
2023/12/16 05:14:32;;;;;;;55.07;17.63;;;;;;;;;;6092744;23;20170;-91
2023/12/16 05:17:37;;;;;;;57.37;18.23;;;;;;;;;;6092132;23;20174;-90
2023/12/16 05:20:42;;;;;;;58.40;19.07;;;;;;;;;;6092235;23;20215;-88
2023/12/16 05:23:47;;;;;;;60.27;19.23;;;;;;;;;;6091791;23;20174;-90
2023/12/16 05:26:52;;;;;;;54.07;19.27;;;;;;;;;;6088808;23;20625;-88
2023/12/16 05:29:59;;;;;;;58.40;18.40;;;;;;;;;;6105691;23;20213;-89
2023/12/16 05:33:05;;;;;;;52.43;17.27;;;;;;;;;;6089526;23;20170;-89
2023/12/16 05:36:10;;;;;;;51.13;17.37;;;;;;;;;;6093267;23;20173;-90
2023/12/16 05:39:15;;;;;;;51.63;18.47;;;;;;;;;;6093193;23;20301;-91
2023/12/16 05:42:21;;;;;;;56.90;17.90;;;;;;;;;;6092610;23;20218;-92
2023/12/16 05:45:27;;;;;;;57.83;18.50;;;;;;;;;;6093054;23;20170;-89
2023/12/16 05:48:35;;;;;;;63.00;18.40;;;;;;;;;;6093807;23;20218;-90
2023/12/16 05:51:40;;;;;;;61.60;20.20;;;;;;;;;;6092460;23;20198;-90
2023/12/16 05:54:45;;;;;;;64.90;19.13;;;;;;;;;;6092893;23;20174;-91
2023/12/16 05:57:50;;;;;;;61.60;18.90;;;;;;;;;;6091605;23;20170;-89
2023/12/16 06:00:57;;;;;;;62.10;18.47;;;;;;;;;;6094834;23;20197;-92
2023/12/16 06:04:02;;;;;;;61.40;18.67;;;;;;;;;;6094512;23;20244;-92
2023/12/16 06:07:08;;;;;;;57.43;18.20;;;;;;;;;;6094522;23;20232;-90
2023/12/16 06:10:14;;;;;;;58.43;18.90;;;;;;;;;;6094079;23;20197;-91
2023/12/16 06:13:19;;;;;;;62.40;19.60;;;;;;;;;;6092086;23;20177;-90
2023/12/16 06:16:25;;;;;;;63.87;18.67;;;;;;;;;;6093650;23;20167;-90
2023/12/16 06:19:31;;;;;;;58.57;18.47;;;;;;;;;;6110486;23;20169;-90
2023/12/16 06:22:36;;;;;;;59.20;18.63;;;;;;;;;;6094237;23;20218;-91
2023/12/16 06:25:41;;;;;;;55.27;17.93;;;;;;;;;;6095947;23;20153;-91
2023/12/16 06:28:46;;;;;;;61.00;18.90;;;;;;;;;;6094665;23;20234;-91
2023/12/16 06:31:53;;;;;;;56.23;18.50;;;;;;;;;;6093997;23;20153;-89
2023/12/16 06:34:59;;;;;;;56.80;18.27;;;;;;;;;;6112253;23;20189;-89
2023/12/16 06:38:05;;;;;;;59.43;19.07;;;;;;;;;;6095877;23;20174;-90
2023/12/16 06:41:11;;;;;;;67.13;20.17;;;;;;;;;;6094720;23;20170;-91
2023/12/16 06:44:16;;;;;;;61.80;18.20;;;;;;;;;;6111554;23;20165;-90
2023/12/16 06:47:23;;;;;;;66.60;18.43;;;;;;;;;;6094454;23;20157;-91
2023/12/16 06:50:28;;;;;;;64.73;20.23;;;;;;;;;;6113642;23;20180;-91
2023/12/16 06:53:35;;;;;;;64.93;20.13;;;;;;;;;;6116649;23;20181;-90
2023/12/16 06:56:40;;;;;;;67.27;19.27;;;;;;;;;;6114931;23;20170;-89
2023/12/16 06:59:46;;;;;;;66.47;20.03;;;;;;;;;;6095626;23;20158;-91
2023/12/16 07:02:52;;;;;;;69.47;20.17;;;;;;;;;;6083380;23;20175;-91
2023/12/16 07:05:57;;;;;;;64.03;20.37;;;;;;;;;;6085216;23;20159;-90
2023/12/16 07:09:03;;;;;;;58.63;19.83;;;;;;;;;;6067011;23;20706;-90
2023/12/16 07:12:08;;;;;;;63.10;19.27;;;;;;;;;;6080834;23;20630;-89
2023/12/16 07:15:13;;;;;;;64.87;19.00;;;;;;;;;;6081797;23;20203;-90
2023/12/16 07:18:20;;;;;;;74.30;20.40;;;;;;;;;;6081410;23;20719;-91
2023/12/16 07:21:27;;;;;;;64.77;20.47;;;;;;;;;;6065216;23;20175;-90
2023/12/16 07:24:32;;;;;;;74.73;22.00;;;;;;;;;;6064638;23;20191;-92
2023/12/16 07:27:36;;;;;;;69.87;21.20;;;;;;;;;;6064244;23;20169;-92
2023/12/16 07:30:42;;;;;;;70.50;20.63;;;;;;;;;;6065826;23;20244;-89
2023/12/16 07:33:49;;;;;;;70.23;20.37;;;;;;;;;;6067104;23;20166;-89
2023/12/16 07:36:54;;;;;;;80.23;21.97;;;;;;;;;;6081420;23;20170;-90
2023/12/16 07:39:59;;;;;;;75.23;20.10;;;;;;;;;;6083640;23;20210;-91
2023/12/16 07:43:04;;;;;;;74.40;20.70;;;;;;;;;;6083541;23;20258;-92
2023/12/16 07:46:09;;;;;;;73.13;20.97;;;;;;;;;;6066911;23;20167;-89
2023/12/16 07:49:19;;;;;;;75.43;21.53;;;;;;;;;;6066580;23;20278;-89
2023/12/16 07:52:24;;;;;;;71.07;21.50;;;;;;;;;;6085777;23;20183;-89
2023/12/16 07:55:29;;;;;;;70.37;20.20;;;;;;;;;;6072400;23;20174;-90
2023/12/16 07:58:35;;;;;;;64.93;19.17;;;;;;;;;;6067120;23;20172;-91
2023/12/16 08:01:42;;;;;;;71.73;21.27;;;;;;;;;;6086299;23;20190;-90
2023/12/16 08:04:53;;;;;;;81.97;20.33;;;;;;;;;;6101820;23;20153;-92
2023/12/16 08:07:59;;;;;;;68.03;19.73;;;;;;;;;;6113931;23;20219;-91
2023/12/16 08:11:05;;;;;;;79.67;21.20;;;;;;;;;;6098443;23;20222;-89
2023/12/16 08:14:12;;;;;;;71.57;20.40;;;;;;;;;;6099547;23;20173;-91
2023/12/16 08:17:21;;;;;;;69.23;20.13;;;;;;;;;;6114807;23;20174;-91
2023/12/16 08:20:28;;;;;;;69.03;20.73;;;;;;;;;;6112430;23;20190;-92
2023/12/16 08:26:55;;;;;;;75.83;21.17;;;;;;;;;;6118022;23;20170;-90
2023/12/16 08:30:06;;;;;;;74.00;22.10;;;;;;;;;;6118143;23;20181;-90
2023/12/16 08:33:13;;;;;;;65.93;21.30;;;;;;;;;;6098629;23;20173;-89
2023/12/16 08:36:19;;;;;;;80.03;22.90;;;;;;;;;;6097010;23;20166;-91
2023/12/16 08:39:25;;;;;;;71.97;21.77;;;;;;;;;;6111733;23;20177;-90
2023/12/16 08:42:31;;;;;;;67.67;20.63;;;;;;;;;;6095445;23;20618;-90
2023/12/16 08:45:36;;;;;;;74.03;20.00;;;;;;;;;;6112382;23;20166;-92
2023/12/16 08:48:41;;;;;;;74.83;20.83;;;;;;;;;;6111508;23;20269;-88
2023/12/16 08:51:49;;;;;;;69.70;20.93;;;;;;;;;;6111772;23;20174;-90
2023/12/16 08:54:57;;;;;;;75.80;22.27;;;;;;;;;;6091901;23;20165;-90
2023/12/16 08:58:02;;;;;;;72.53;22.97;;;;;;;;;;6094063;23;20173;-90
2023/12/16 09:01:08;;;;;;;82.70;22.53;;;;;;;;;;6113080;23;20197;-90
2023/12/16 09:04:14;;;;;;;77.87;20.87;;;;;;;;;;6096831;23;20170;-92
2023/12/16 09:07:21;;;;;;;68.67;21.70;;;;;;;;;;6096238;23;20169;-91
2023/12/16 09:10:35;;;;;;;72.17;21.40;;;;;;;;;;6097304;23;20193;-91
2023/12/16 09:13:40;;;;;;;73.03;21.93;;;;;;;;;;6095974;23;20250;-91
2023/12/16 09:16:45;;;;;;;63.73;20.80;;;;;;;;;;6095169;23;20500;-91
2023/12/16 09:19:51;;;;;;;68.43;20.13;;;;;;;;;;6112999;23;20191;-92
2023/12/16 09:23:11;;;;;;;72.10;21.23;;;;;;;;;;6096475;23;20210;-91
2023/12/16 09:26:19;;;;;;;68.90;22.13;;;;;;;;;;6098025;23;20190;-90
2023/12/16 09:29:25;;;;;;;65.87;21.07;;;;;;;;;;6096082;23;20290;-90
2023/12/16 09:32:31;;;;;;;65.70;21.42;;;;;;;;;;6098119;23;20170;-90
2023/12/16 09:35:37;;;;;;;66.20;21.30;;;;;;;;;;6100491;23;20173;-91
2023/12/16 09:38:42;;;;;;;65.28;21.17;;;;;;;;;;6098780;23;20282;-90
2023/12/16 09:41:51;;;;;;;67.15;21.50;;;;;;;;;;6095359;23;20157;-90
2023/12/16 09:44:58;;;;;;;69.82;25.88;;;;;;;;;;6112392;23;20178;-89
2023/12/16 09:48:04;;;;;;;73.40;24.88;;;;;;;;;;6112809;23;20194;-89
2023/12/16 09:51:09;;;;;;;61.22;21.85;;;;;;;;;;6113019;23;20300;-92
2023/12/16 09:54:16;;;;;;;57.95;21.50;;;;;;;;;;6113341;23;20186;-91
2023/12/16 09:57:24;;;;;;;61.78;20.30;;;;;;;;;;6111784;23;20169;-92
2023/12/16 10:00:30;;;;;;;62.67;19.85;;;;;;;;;;6097807;23;20162;-90
2023/12/16 10:03:38;;;;;;;66.32;20.35;;;;;;;;;;6096222;23;20169;-90
2023/12/16 10:06:43;;;;;;;63.42;20.08;;;;;;;;;;6097811;23;20197;-92
2023/12/16 10:09:49;;;;;;;63.80;19.08;;;;;;;;;;6096530;23;20190;-90
2023/12/16 10:12:57;;;;;;;57.97;19.23;;;;;;;;;;6112990;23;20218;-91
2023/12/16 10:16:03;;;;;;;56.38;19.30;;;;;;;;;;6096285;23;20174;-90
2023/12/16 10:19:08;;;;;;;61.75;19.95;;;;;;;;;;6101467;23;20170;-89
2023/12/16 10:22:14;;;;;;;66.78;21.05;;;;;;;;;;6101245;23;20242;-90
2023/12/16 10:25:19;;;;;;;60.13;19.58;;;;;;;;;;6114575;23;20302;-91
2023/12/16 10:28:28;;;;;;;53.75;19.40;;;;;;;;;;6114644;23;20633;-90
2023/12/16 10:31:36;;;;;;;47.00;17.90;;;;;;;;;;6116308;23;20206;-90
2023/12/16 10:34:42;;;;;;;56.17;20.13;;;;;;;;;;6099718;23;20292;-88
2023/12/16 10:37:51;;;;;;;61.25;20.77;;;;;;;;;;6097777;23;20174;-91
2023/12/16 10:40:56;;;;;;;54.13;19.70;;;;;;;;;;6112745;23;20170;-89
2023/12/16 10:44:02;;;;;;;56.45;20.00;;;;;;;;;;6112532;23;20294;-87
2023/12/16 10:47:10;;;;;;;45.60;18.40;;;;;;;;;;6110259;23;20194;-91
2023/12/16 10:50:16;;;;;;;56.38;22.20;;;;;;;;;;6094701;23;20197;-92
2023/12/16 10:53:27;;;;;;;49.08;18.55;;;;;;;;;;6097142;23;20157;-90
2023/12/16 10:56:35;;;;;;;47.00;18.73;;;;;;;;;;6098248;23;20210;-91
2023/12/16 10:59:59;;;;;;;46.08;18.58;;;;;;;;;;6114687;23;20190;-89
2023/12/16 11:06:29;;;;;;;48.08;18.80;;;;;;;;;;6068411;23;20679;-90
2023/12/16 11:09:35;;;;;;;45.83;19.17;;;;;;;;;;6069921;23;20185;-91
2023/12/16 11:12:40;;;;;;;43.55;18.50;;;;;;;;;;6083406;23;20171;-92
2023/12/16 11:15:52;;;;;;;41.05;18.33;;;;;;;;;;6086921;23;20212;-89
2023/12/16 11:18:59;;;;;;;39.40;18.20;;;;;;;;;;6068075;23;20212;-89
2023/12/16 11:22:04;;;;;;;40.53;18.05;;;;;;;;;;6065538;23;20217;-90
2023/12/16 11:25:19;;;;;;;40.35;18.23;;;;;;;;;;6068970;23;20166;-91
2023/12/16 11:28:27;;;;;;;38.90;17.92;;;;;;;;;;6065649;23;20162;-92
2023/12/16 11:31:35;;;;;;;43.30;18.10;;;;;;;;;;6068767;23;20683;-92
2023/12/16 11:38:42;;;;;;;36.92;16.30;;;;;;;;;;6073016;23;20492;-92
2023/12/16 11:41:49;;;;;;;45.85;17.52;;;;;;;;;;6088605;23;20178;-91
2023/12/16 11:48:18;;;;;;;34.53;16.60;;;;;;;;;;6072353;23;20198;-91
2023/12/16 11:51:26;;;;;;;39.60;17.52;;;;;;;;;;6071033;23;20199;-89
2023/12/16 11:54:31;;;;;;;39.13;17.60;;;;;;;;;;6071689;23;20157;-91
2023/12/16 11:57:37;;;;;;;42.42;16.83;;;;;;;;;;6071496;23;20215;-92
2023/12/16 12:00:46;;;;;;;38.17;16.88;;;;;;;;;;6089529;23;20222;-90
2023/12/16 12:03:53;;;;;;;36.38;16.25;;;;;;;;;;6118069;23;20170;-91
2023/12/16 12:07:01;;;;;;;33.92;15.98;;;;;;;;;;6097513;23;20178;-91
2023/12/16 12:10:08;;;;;;;33.95;16.73;;;;;;;;;;6114021;23;20181;-89
2023/12/16 12:13:13;;;;;;;33.50;15.68;;;;;;;;;;6095911;23;20233;-90
2023/12/16 12:16:18;;;;;;;40.58;17.40;;;;;;;;;;6097198;23;20170;-89
2023/12/16 12:19:25;;;;;;;36.20;16.92;;;;;;;;;;6111402;23;20186;-90
2023/12/16 12:22:31;;;;;;;36.42;16.27;;;;;;;;;;6109388;23;20225;-91
2023/12/16 12:25:36;;;;;;;36.80;15.43;;;;;;;;;;6093844;23;20164;-89
2023/12/16 12:28:42;;;;;;;35.30;16.65;;;;;;;;;;6096049;23;20154;-90
2023/12/16 12:31:48;;;;;;;34.17;15.52;;;;;;;;;;6116009;23;20251;-88
2023/12/16 12:35:06;;;;;;;34.03;15.23;;;;;;;;;;6097371;23;20177;-90
2023/12/16 12:38:15;;;;;;;36.15;15.80;;;;;;;;;;6097065;23;20222;-89
2023/12/16 12:41:21;;;;;;;33.63;14.82;;;;;;;;;;6114199;23;20178;-89
2023/12/16 12:44:28;;;;;;;31.30;14.60;;;;;;;;;;6096006;23;20166;-90
2023/12/16 12:47:33;;;;;;;30.88;13.98;;;;;;;;;;6098376;23;20169;-89
2023/12/16 12:50:40;;;;;;;33.28;15.30;;;;;;;;;;6096560;23;20198;-90
2023/12/16 12:53:55;;;;;;;40.30;17.75;;;;;;;;;;6111781;23;20166;-90
2023/12/16 12:57:01;;;;;;;34.95;15.75;;;;;;;;;;6093876;23;20178;-90
2023/12/16 13:00:08;;;;;;;33.17;15.30;;;;;;;;;;6109050;23;20173;-90
2023/12/16 13:03:13;;;;;;;33.22;15.63;;;;;;;;;;6090871;23;20170;-90
2023/12/16 13:06:23;;;;;;;33.38;14.85;;;;;;;;;;6097350;23;20187;-90
2023/12/16 13:09:29;;;;;;;42.33;17.17;;;;;;;;;;6096754;23;20271;-90
2023/12/16 13:12:35;;;;;;;34.55;16.20;;;;;;;;;;6091713;23;20173;-91
2023/12/16 13:15:40;;;;;;;34.17;15.77;;;;;;;;;;6110308;23;20173;-92
2023/12/16 13:18:45;;;;;;;31.42;13.65;;;;;;;;;;6093982;23;20243;-91
2023/12/16 13:21:52;;;;;;;33.15;15.85;;;;;;;;;;6095778;23;20177;-91
2023/12/16 13:24:57;;;;;;;34.33;14.05;;;;;;;;;;6096344;23;20173;-91
2023/12/16 13:28:04;;;;;;;36.78;14.05;;;;;;;;;;6097326;23;20165;-91
2023/12/16 13:31:10;;;;;;;35.08;14.52;;;;;;;;;;6113610;23;20265;-90
2023/12/16 13:34:16;;;;;;;37.42;16.08;;;;;;;;;;6113173;23;20177;-90
2023/12/16 13:37:38;;;;;;;38.28;15.48;;;;;;;;;;6096458;23;20149;-92
2023/12/16 13:40:46;;;;;;;38.80;16.83;;;;;;;;;;6098290;23;20227;-90
2023/12/16 13:43:51;;;;;;;45.28;16.52;;;;;;;;;;6114222;23;20630;-89
2023/12/16 13:46:57;;;;;;;53.92;18.83;;;;;;;;;;6095359;23;20175;-88
2023/12/16 13:50:02;;;;;;;38.65;15.35;;;;;;;;;;6094878;23;20163;-90
2023/12/16 13:53:08;;;;;;;34.75;15.43;;;;;;;;;;6112630;23;20166;-90
2023/12/16 13:56:14;;;;;;;42.85;16.02;;;;;;;;;;6096609;23;20169;-90
2023/12/16 13:59:19;;;;;;;40.78;15.57;;;;;;;;;;6115149;23;20674;-90
2023/12/16 14:02:24;;;;;;;37.20;17.02;;;;;;;;;;6095814;23;20507;-91
2023/12/16 14:05:30;;;;;;;42.22;16.65;;;;;;;;;;6097873;23;20169;-90
2023/12/16 14:08:36;;;;;;;41.88;15.85;;;;;;;;;;6095649;23;20240;-89
2023/12/16 14:11:43;;;;;;;48.20;17.05;;;;;;;;;;6111995;23;20273;-91
2023/12/16 14:14:48;;;;;;;37.33;15.73;;;;;;;;;;6096610;23;20249;-91
2023/12/16 14:17:53;;;;;;;37.05;15.43;;;;;;;;;;6096229;23;20210;-90
2023/12/16 14:20:58;;;;;;;40.22;16.33;;;;;;;;;;6098120;23;20186;-92
2023/12/16 14:24:04;;;;;;;36.55;16.13;;;;;;;;;;6113706;23;20165;-91
2023/12/16 14:27:11;;;;;;;43.10;15.63;;;;;;;;;;6114466;23;20174;-92
2023/12/16 14:30:17;;;;;;;43.75;17.35;;;;;;;;;;6116261;23;20219;-91
2023/12/16 14:33:24;;;;;;;35.15;16.05;;;;;;;;;;6116080;23;20214;-90
2023/12/16 14:36:30;;;;;;;30.02;13.48;;;;;;;;;;6099538;23;20194;-91
2023/12/16 14:39:35;;;;;;;33.55;15.40;;;;;;;;;;6100087;23;20190;-92
2023/12/16 14:42:45;;;;;;;39.38;16.20;;;;;;;;;;6099389;23;20242;-91
2023/12/16 14:45:51;;;;;;;37.92;15.32;;;;;;;;;;6097845;23;20374;-93
2023/12/16 14:48:56;;;;;;;33.28;13.98;;;;;;;;;;6110395;23;20169;-90
2023/12/16 14:52:02;;;;;;;32.80;14.20;;;;;;;;;;6112865;23;20189;-91
2023/12/16 14:55:10;;;;;;;36.38;14.95;;;;;;;;;;6099492;23;20174;-91
2023/12/16 14:58:19;;;;;;;33.55;14.73;;;;;;;;;;6116755;23;20235;-92
2023/12/16 15:01:28;;;;;;;35.13;15.27;;;;;;;;;;6116967;23;20192;-92
2023/12/16 15:04:35;;;;;;;34.42;14.88;;;;;;;;;;6116647;23;20171;-91
2023/12/16 15:07:41;;;;;;;37.58;15.32;;;;;;;;;;6115916;23;20166;-90
2023/12/16 15:10:47;;;;;;;37.72;16.17;;;;;;;;;;6099307;23;20550;-90
2023/12/16 15:13:54;;;;;;;34.40;15.10;;;;;;;;;;6099190;23;20250;-92
2023/12/16 15:16:59;;;;;;;34.35;15.63;;;;;;;;;;6096185;23;20170;-90
2023/12/16 15:20:07;;;;;;;40.63;15.52;;;;;;;;;;6112883;23;20159;-93
2023/12/16 15:23:12;;;;;;;42.50;16.67;;;;;;;;;;6096726;23;20166;-89
2023/12/16 15:26:19;;;;;;;41.43;16.60;;;;;;;;;;6095749;23;20170;-90
2023/12/16 15:29:26;;;;;;;41.97;18.13;;;;;;;;;;6099447;23;20215;-92
2023/12/16 15:32:32;;;;;;;42.92;18.63;;;;;;;;;;6115555;23;20250;-90
2023/12/16 15:35:41;;;;;;;38.88;16.70;;;;;;;;;;6114180;23;20170;-91
2023/12/16 15:38:48;;;;;;;44.20;18.30;;;;;;;;;;6099277;23;20198;-89
2023/12/16 15:41:58;;;;;;;42.22;17.45;;;;;;;;;;6118126;23;20182;-93
2023/12/16 15:45:08;;;;;;;46.20;18.30;;;;;;;;;;6115408;23;20285;-91
2023/12/16 15:48:13;;;;;;;43.03;19.07;;;;;;;;;;6103061;23;20174;-90
2023/12/16 15:51:34;;;;;;;40.85;17.85;;;;;;;;;;6113965;23;20197;-90
2023/12/16 15:54:39;;;;;;;45.07;18.57;;;;;;;;;;6100415;23;20178;-90
2023/12/16 15:57:44;;;;;;;34.73;15.80;;;;;;;;;;6098229;23;20154;-92
2023/12/16 16:00:55;;;;;;;36.35;15.98;;;;;;;;;;6098652;23;20233;-91
2023/12/16 16:04:04;;;;;;;44.20;19.53;;;;;;;;;;6116263;23;20177;-92
2023/12/16 16:07:12;;;;;;;46.83;20.17;;;;;;;;;;6115221;23;20198;-93
2023/12/16 16:10:18;;;;;;;44.70;18.47;;;;;;;;;;6116374;23;20158;-91
2023/12/16 16:13:25;;;;;;;54.13;18.48;;;;;;;;;;6116587;23;20174;-92
2023/12/16 16:16:32;;;;;;;50.43;19.70;;;;;;;;;;6098908;23;20244;-90
2023/12/16 16:19:44;;;;;;;44.63;17.90;;;;;;;;;;6115452;23;20614;-90
2023/12/16 16:22:53;;;;;;;43.53;18.13;;;;;;;;;;6098606;23;20175;-91
2023/12/16 16:26:05;;;;;;;45.07;17.80;;;;;;;;;;6083294;23;20181;-91
2023/12/16 16:29:10;;;;;;;43.20;16.77;;;;;;;;;;6098338;23;20174;-91
2023/12/16 16:32:20;;;;;;;40.23;17.33;;;;;;;;;;6100345;23;20202;-91
2023/12/16 16:35:26;;;;;;;39.00;17.73;;;;;;;;;;6115611;23;20170;-91
2023/12/16 16:38:32;;;;;;;41.90;18.50;;;;;;;;;;6116370;23;20195;-93
2023/12/16 16:41:37;;;;;;;41.10;17.90;;;;;;;;;;6114046;23;20250;-91
2023/12/16 16:44:42;;;;;;;41.00;16.77;;;;;;;;;;6098026;23;20190;-91
2023/12/16 16:51:09;;;;;;;59.87;21.50;;;;;;;;;;6099473;23;20165;-90
2023/12/16 16:54:20;;;;;;;46.77;19.47;;;;;;;;;;6098513;23;20210;-89
2023/12/16 16:57:27;;;;;;;48.23;18.77;;;;;;;;;;6096618;23;20154;-90
2023/12/16 17:00:33;;;;;;;43.03;17.77;;;;;;;;;;6094277;23;20226;-90
2023/12/16 17:03:39;;;;;;;61.50;25.87;;;;;;;;;;6112803;23;20174;-90
2023/12/16 17:06:45;;;;;;;42.40;16.70;;;;;;;;;;6110020;23;20173;-88
2023/12/16 17:09:50;;;;;;;38.73;16.73;;;;;;;;;;6091734;23;20262;-90
2023/12/16 17:12:55;;;;;;;42.37;17.27;;;;;;;;;;6092099;23;20201;-89
2023/12/16 17:16:02;;;;;;;40.70;16.67;;;;;;;;;;6091995;23;21094;-90
2023/12/16 17:19:09;;;;;;;42.17;17.40;;;;;;;;;;6093570;23;20165;-88
2023/12/16 17:22:15;;;;;;;39.80;17.57;;;;;;;;;;6109345;23;20173;-89
2023/12/16 17:25:20;;;;;;;49.87;19.97;;;;;;;;;;6093047;23;20166;-89
2023/12/16 17:28:27;;;;;;;43.90;18.50;;;;;;;;;;6092786;23;20174;-90
2023/12/16 17:31:33;;;;;;;43.53;17.87;;;;;;;;;;6096764;23;20248;-89
2023/12/16 17:34:40;;;;;;;51.20;20.50;;;;;;;;;;6095247;23;20173;-90
2023/12/16 17:37:48;;;;;;;49.73;20.57;;;;;;;;;;6095876;23;20158;-89
2023/12/16 17:40:53;;;;;;;64.50;25.53;;;;;;;;;;6097187;23;20234;-89
2023/12/16 17:44:01;;;;;;;108.07;36.87;;;;;;;;;;6097196;23;20186;-90
2023/12/16 17:47:07;;;;;;;91.37;32.73;;;;;;;;;;6086687;23;20178;-90
2023/12/16 17:50:13;;;;;;;91.27;26.67;;;;;;;;;;6068928;23;20190;-89
2023/12/16 17:53:19;;;;;;;165.87;46.47;;;;;;;;;;6070665;23;20537;-89
2023/12/16 17:56:25;;;;;;;101.43;33.70;;;;;;;;;;6069190;23;20198;-88
2023/12/16 17:59:30;;;;;;;63.03;23.03;;;;;;;;;;6068623;23;20211;-88
2023/12/16 18:02:35;;;;;;;53.30;20.97;;;;;;;;;;6069124;23;20174;-90
2023/12/16 18:05:42;;;;;;;78.93;20.87;;;;;;;;;;6067069;23;20514;-90
2023/12/16 18:08:47;;;;;;;68.30;22.40;;;;;;;;;;6069104;23;20166;-90
2023/12/16 18:11:52;;;;;;;68.27;24.10;;;;;;;;;;6083221;23;20197;-90
2023/12/16 18:14:58;;;;;;;81.83;25.30;;;;;;;;;;6066267;23;20166;-89
2023/12/16 18:18:03;;;;;;;68.10;24.50;;;;;;;;;;6087153;23;20170;-89
2023/12/16 18:21:10;;;;;;;95.23;24.53;;;;;;;;;;6070403;23;20582;-89